Time;durP1;ratioP1;P1;durP2;ratioP2;P2;SDS_P1;SDS_P2;PMS_P1;PMS_P2;Temp;Humidity;BMP_temperature;BMP_pressure;BME280_temperature;BME280_humidity;BME280_pressure;Samples;Min_cycle;Max_cycle;Signal;HPM_P1;HPM_P2
2022/07/20 00:01:41;;;;;;;12.48;5.75;;;27.00;47.20;;;;;;5057872;28;20195;-67
2022/07/20 00:04:07;;;;;;;24.67;11.93;;;27.00;47.30;;;;;;5057823;28;20239;-66
2022/07/20 00:06:32;;;;;;;24.77;10.73;;;26.90;47.30;;;;;;5057834;28;20201;-67
2022/07/20 00:11:42;;;;;;;41.05;20.35;;;26.80;47.40;;;;;;5057906;28;20184;-67
2022/07/20 00:14:08;;;;;;;68.60;37.50;;;26.70;47.70;;;;;;5057443;28;20185;-67
2022/07/20 00:16:35;;;;;;;70.07;36.75;;;26.60;48.00;;;;;;5058191;28;20178;-67
2022/07/20 00:19:01;;;;;;;76.32;35.33;;;26.60;48.30;;;;;;5057501;28;20576;-67
2022/07/20 00:21:26;;;;;;;61.90;27.25;;;26.50;48.40;;;;;;5057383;28;20225;-67
2022/07/20 00:23:52;;;;;;;55.42;24.30;;;26.50;48.20;;;;;;5056096;28;20652;-68
2022/07/20 00:26:17;;;;;;;50.53;22.23;;;26.50;48.40;;;;;;5057450;28;20213;-66
2022/07/20 00:28:43;;;;;;;43.72;19.92;;;26.40;48.20;;;;;;5057461;28;20184;-68
2022/07/20 00:31:09;;;;;;;39.17;16.67;;;26.40;48.10;;;;;;5057466;28;20180;-67
2022/07/20 00:33:35;;;;;;;22.70;10.50;;;26.30;48.40;;;;;;5057274;28;20186;-67
2022/07/20 00:36:01;;;;;;;16.70;8.35;;;26.30;48.50;;;;;;5057215;28;20243;-67
2022/07/20 00:38:26;;;;;;;15.77;7.35;;;26.20;48.50;;;;;;5057229;28;20181;-67
2022/07/20 00:40:52;;;;;;;15.77;7.25;;;26.20;48.40;;;;;;5054324;28;20245;-67
2022/07/20 00:43:17;;;;;;;13.48;6.30;;;26.10;48.90;;;;;;5054019;28;20276;-67
2022/07/20 00:45:43;;;;;;;12.05;6.38;;;26.10;48.80;;;;;;5054140;28;20269;-67
2022/07/20 00:48:08;;;;;;;13.90;6.68;;;26.10;48.90;;;;;;5053758;28;20239;-67
2022/07/20 00:50:34;;;;;;;13.38;5.43;;;26.00;49.10;;;;;;5053863;28;20205;-67
2022/07/20 00:53:00;;;;;;;10.25;5.90;;;26.00;49.30;;;;;;5047879;28;20194;-67
2022/07/20 00:55:26;;;;;;;14.05;6.05;;;25.90;49.80;;;;;;5046034;28;20185;-68
2022/07/20 00:57:51;;;;;;;9.88;5.65;;;25.90;49.90;;;;;;5052730;28;20183;-67
2022/07/20 01:00:17;;;;;;;7.85;4.65;;;25.80;49.70;;;;;;5053647;28;20182;-67
2022/07/20 01:02:43;;;;;;;8.57;5.03;;;25.70;49.80;;;;;;5053768;28;20552;-68
2022/07/20 01:05:14;;;;;;;7.70;3.97;;;25.70;50.30;;;;;;5053826;28;20173;-68
2022/07/20 01:07:41;;;;;;;10.30;3.70;;;25.60;50.60;;;;;;5053991;28;20312;-68
2022/07/20 01:10:07;;;;;;;6.00;3.70;;;25.50;50.90;;;;;;5053569;28;20571;-68
2022/07/20 01:12:33;;;;;;;5.30;3.30;;;25.40;50.80;;;;;;5052880;28;20211;-68
2022/07/20 01:14:58;;;;;;;7.53;2.97;;;25.40;51.20;;;;;;5052145;28;20235;-68
2022/07/20 01:17:24;;;;;;;6.68;3.25;;;25.30;51.50;;;;;;5053451;28;20170;-68
2022/07/20 01:19:49;;;;;;;4.30;3.25;;;25.30;51.80;;;;;;5053084;28;20193;-68
2022/07/20 01:22:15;;;;;;;5.05;3.42;;;25.20;51.70;;;;;;5053055;28;20292;-68
2022/07/20 01:24:40;;;;;;;5.32;3.40;;;25.10;52.00;;;;;;5053064;28;20639;-68
2022/07/20 01:27:06;;;;;;;5.35;3.00;;;25.10;52.00;;;;;;5051655;28;20212;-68
2022/07/20 01:29:31;;;;;;;7.80;3.22;;;25.10;52.10;;;;;;5053349;28;20189;-68
2022/07/20 01:31:57;;;;;;;6.47;3.80;;;25.10;52.60;;;;;;5053280;28;20541;-68
2022/07/20 01:34:22;;;;;;;5.97;3.45;;;25.10;52.70;;;;;;5053036;28;20178;-68
2022/07/20 01:36:48;;;;;;;4.53;2.90;;;25.00;52.30;;;;;;5052777;28;20563;-68
2022/07/20 01:39:14;;;;;;;5.57;2.97;;;24.90;52.50;;;;;;5052646;28;20191;-68
2022/07/20 01:41:39;;;;;;;7.43;3.30;;;24.90;51.90;;;;;;5053009;28;20189;-68
2022/07/20 01:44:06;;;;;;;7.05;3.53;;;24.90;51.90;;;;;;5052412;28;20181;-67
2022/07/20 01:46:31;;;;;;;6.75;2.92;;;24.90;51.90;;;;;;5051145;28;20714;-68
2022/07/20 01:48:57;;;;;;;4.43;3.00;;;24.90;51.90;;;;;;5052988;28;20204;-68
2022/07/20 01:51:23;;;;;;;5.50;3.30;;;24.90;51.50;;;;;;5052164;28;20193;-68
2022/07/20 01:53:48;;;;;;;13.55;7.03;;;24.90;52.40;;;;;;5052528;28;20660;-67
2022/07/20 01:56:14;;;;;;;41.05;19.52;;;24.90;51.90;;;;;;5052533;28;20184;-67
2022/07/20 01:58:39;;;;;;;32.00;13.95;;;24.80;52.10;;;;;;5052960;28;20181;-68
2022/07/20 02:01:05;;;;;;;30.55;14.90;;;24.80;52.20;;;;;;5052454;28;21207;-68
2022/07/20 02:03:31;;;;;;;43.40;20.40;;;24.70;52.30;;;;;;5052786;28;20279;-68
2022/07/20 02:05:57;;;;;;;77.47;33.33;;;24.70;52.50;;;;;;5052519;28;20594;-68
2022/07/20 02:08:25;;;;;;;99.45;41.10;;;24.60;52.50;;;;;;5052585;28;20193;-68
2022/07/20 02:10:51;;;;;;;147.48;59.13;;;24.60;52.70;;;;;;5052046;28;20224;-68
2022/07/20 02:13:16;;;;;;;75.13;32.60;;;24.60;52.80;;;;;;5052526;28;20177;-67
2022/07/20 02:18:26;;;;;;;103.68;43.30;;;24.60;52.80;;;;;;5052183;28;20189;-67
2022/07/20 02:20:52;;;;;;;49.08;23.00;;;24.50;52.90;;;;;;5052496;28;20221;-68
2022/07/20 02:23:17;;;;;;;33.22;15.32;;;24.50;52.90;;;;;;5052281;28;20193;-68
2022/07/20 02:25:43;;;;;;;21.08;9.73;;;24.50;53.50;;;;;;5052346;28;20185;-68
2022/07/20 02:28:09;;;;;;;14.63;7.30;;;24.40;53.00;;;;;;5052206;28;20224;-68
2022/07/20 02:30:35;;;;;;;10.88;5.32;;;24.40;53.10;;;;;;5052062;28;20179;-68
2022/07/20 02:33:04;;;;;;;15.38;7.30;;;24.30;53.10;;;;;;5052408;28;20177;-68
2022/07/20 02:35:29;;;;;;;20.85;10.55;;;24.30;53.40;;;;;;5051729;28;20185;-68
2022/07/20 02:37:55;;;;;;;67.65;29.52;;;24.20;53.40;;;;;;5052003;28;20181;-68
2022/07/20 02:40:20;;;;;;;50.53;24.00;;;24.20;53.60;;;;;;5051720;28;20621;-68
2022/07/20 02:42:46;;;;;;;45.80;21.27;;;24.10;53.50;;;;;;5050885;28;20185;-68
2022/07/20 02:45:11;;;;;;;15.15;7.70;;;24.10;53.60;;;;;;5051898;28;20261;-67
2022/07/20 02:47:44;;;;;;;11.85;6.13;;;24.00;53.50;;;;;;5052012;28;20243;-68
2022/07/20 02:50:11;;;;;;;49.55;30.23;;;23.90;53.70;;;;;;5051851;28;20188;-68
2022/07/20 02:52:41;;;;;;;26.65;15.15;;;23.80;54.20;;;;;;5051464;28;20189;-68
2022/07/20 02:55:07;;;;;;;20.13;8.82;;;23.80;54.30;;;;;;5051469;28;20671;-68
2022/07/20 02:57:33;;;;;;;31.38;14.40;;;23.70;54.30;;;;;;5051984;28;20178;-68
2022/07/20 02:59:59;;;;;;;63.85;27.02;;;23.70;54.50;;;;;;5051705;28;20281;-68
2022/07/20 03:02:24;;;;;;;59.00;26.33;;;23.70;54.50;;;;;;5051265;28;20272;-67
2022/07/20 03:04:50;;;;;;;63.40;28.08;;;23.70;54.70;;;;;;5051214;28;20227;-68
2022/07/20 03:07:16;;;;;;;55.90;25.60;;;23.70;54.60;;;;;;5051580;28;20209;-68
2022/07/20 03:09:42;;;;;;;24.75;10.20;;;23.70;54.60;;;;;;5051675;28;20211;-68
2022/07/20 03:12:08;;;;;;;10.02;5.32;;;23.60;54.50;;;;;;5051494;28;20193;-68
2022/07/20 03:14:34;;;;;;;9.38;4.28;;;23.50;54.70;;;;;;5051165;28;20177;-68
2022/07/20 03:17:00;;;;;;;11.95;5.18;;;23.40;55.00;;;;;;5051718;28;20239;-68
2022/07/20 03:19:25;;;;;;;11.15;4.85;;;23.40;55.30;;;;;;5051700;28;20181;-68
2022/07/20 03:21:51;;;;;;;40.45;19.88;;;23.30;55.60;;;;;;5050844;28;20358;-69
2022/07/20 03:24:16;;;;;;;39.55;17.85;;;23.30;55.60;;;;;;5051683;28;20244;-68
2022/07/20 03:26:42;;;;;;;29.27;13.52;;;23.30;55.50;;;;;;5050886;28;20216;-69
2022/07/20 03:29:07;;;;;;;20.45;10.18;;;23.20;55.70;;;;;;5051165;28;20195;-68
2022/07/20 03:31:33;;;;;;;7.85;4.18;;;23.10;55.70;;;;;;5051174;28;20178;-68
2022/07/20 03:33:58;;;;;;;9.48;4.38;;;23.00;55.80;;;;;;5051070;28;20268;-69
2022/07/20 03:36:24;;;;;;;10.18;4.53;;;23.00;56.00;;;;;;5051043;28;20223;-68
2022/07/20 03:38:50;;;;;;;7.05;3.22;;;22.90;56.30;;;;;;5051409;28;20204;-69
2022/07/20 03:41:15;;;;;;;8.65;3.53;;;22.90;56.60;;;;;;5051151;28;20186;-68
2022/07/20 03:43:41;;;;;;;6.07;3.20;;;23.00;56.40;;;;;;5050750;28;20185;-69
2022/07/20 03:46:06;;;;;;;12.25;6.57;;;23.00;56.60;;;;;;5051011;28;20200;-66
2022/07/20 03:48:32;;;;;;;15.27;6.05;;;23.10;56.80;;;;;;5050967;28;20189;-71
2022/07/20 03:50:57;;;;;;;11.85;6.25;;;23.10;56.60;;;;;;5050552;28;20181;-70
2022/07/20 03:53:23;;;;;;;17.52;10.27;;;23.20;56.30;;;;;;5051064;28;20224;-70
2022/07/20 03:55:48;;;;;;;9.85;5.63;;;23.20;56.20;;;;;;5050511;28;20197;-71
2022/07/20 03:58:14;;;;;;;6.57;4.57;;;23.20;56.10;;;;;;5051010;28;20181;-69
2022/07/20 04:00:40;;;;;;;7.63;3.30;;;23.10;55.90;;;;;;5050233;28;20192;-69
2022/07/20 04:03:05;;;;;;;7.18;3.50;;;23.00;56.10;;;;;;5048815;28;20948;-70
2022/07/20 04:05:31;;;;;;;6.13;3.35;;;22.90;56.30;;;;;;5049703;28;20189;-70
2022/07/20 04:07:56;;;;;;;3.17;2.88;;;22.90;56.30;;;;;;5050938;28;20339;-70
2022/07/20 04:10:22;;;;;;;4.40;3.45;;;22.90;56.50;;;;;;5051245;28;20185;-69
2022/07/20 04:12:47;;;;;;;4.07;2.80;;;22.80;56.70;;;;;;5050976;28;20201;-65
2022/07/20 04:15:13;;;;;;;6.82;3.42;;;22.80;56.90;;;;;;5051099;28;20192;-63
2022/07/20 04:17:41;;;;;;;2.80;2.50;;;22.80;56.90;;;;;;5054796;28;20189;-66
2022/07/20 04:20:07;;;;;;;4.90;2.97;;;22.80;57.00;;;;;;5054688;28;20216;-68
2022/07/20 04:22:32;;;;;;;24.90;16.50;;;22.80;57.10;;;;;;5054379;28;20225;-67
2022/07/20 04:24:58;;;;;;;34.90;19.23;;;22.70;57.10;;;;;;5053996;28;20192;-70
2022/07/20 04:27:23;;;;;;;10.00;6.05;;;22.60;57.30;;;;;;5054142;28;20213;-66
2022/07/20 04:29:49;;;;;;;8.77;5.05;;;22.60;57.60;;;;;;5053708;28;20170;-66
2022/07/20 04:32:14;;;;;;;6.45;3.78;;;22.50;57.80;;;;;;5054173;28;20615;-69
2022/07/20 04:34:40;;;;;;;6.05;3.30;;;22.40;58.00;;;;;;5054275;28;20228;-70
2022/07/20 04:37:06;;;;;;;6.43;3.20;;;22.40;58.10;;;;;;5054506;28;20185;-70
2022/07/20 04:39:32;;;;;;;10.63;3.30;;;22.50;58.20;;;;;;5060098;28;20628;-70
2022/07/20 04:41:57;;;;;;;8.07;3.20;;;22.70;58.20;;;;;;5069317;28;20181;-67
2022/07/20 04:44:23;;;;;;;6.05;3.15;;;22.90;58.00;;;;;;5053893;28;20174;-68
2022/07/20 04:46:48;;;;;;;6.28;3.15;;;23.10;57.70;;;;;;5053700;28;20580;-68
2022/07/20 04:49:14;;;;;;;4.85;3.13;;;23.30;57.30;;;;;;5054390;28;20213;-67
2022/07/20 04:51:39;;;;;;;5.53;3.15;;;23.50;57.00;;;;;;5054502;28;20171;-68
2022/07/20 04:54:05;;;;;;;7.20;4.00;;;23.60;56.90;;;;;;5054381;28;20195;-67
2022/07/20 04:56:31;;;;;;;5.13;2.92;;;23.90;56.70;;;;;;5054319;28;20532;-67
2022/07/20 04:58:56;;;;;;;4.20;2.70;;;24.20;56.30;;;;;;5052875;28;20577;-68
2022/07/20 05:01:23;;;;;;;5.05;2.72;;;24.50;56.00;;;;;;5054010;28;20182;-67
2022/07/20 05:03:49;;;;;;;4.18;2.75;;;24.80;55.60;;;;;;5054103;28;20645;-67
2022/07/20 05:06:14;;;;;;;4.40;3.00;;;25.00;55.30;;;;;;5054042;28;20545;-67
2022/07/20 05:08:40;;;;;;;4.50;2.85;;;25.30;54.90;;;;;;5054167;28;20188;-67
2022/07/20 05:11:05;;;;;;;4.63;3.20;;;25.50;54.40;;;;;;5053999;28;20264;-67
2022/07/20 05:13:31;;;;;;;3.55;2.90;;;25.80;54.10;;;;;;5054105;28;20177;-67
2022/07/20 05:15:56;;;;;;;6.20;3.40;;;26.10;53.70;;;;;;5053867;28;20173;-67
2022/07/20 05:18:22;;;;;;;6.50;3.25;;;26.40;53.20;;;;;;5053820;28;20173;-67
2022/07/20 05:20:47;;;;;;;5.95;3.30;;;26.80;52.90;;;;;;5053758;28;20185;-68
2022/07/20 05:23:13;;;;;;;6.75;3.10;;;27.20;52.20;;;;;;5053887;28;20646;-68
2022/07/20 05:25:39;;;;;;;5.07;2.72;;;27.60;51.60;;;;;;5053701;28;20264;-68
2022/07/20 05:28:06;;;;;;;4.65;3.00;;;28.10;50.80;;;;;;5053423;28;20228;-67
2022/07/20 05:30:32;;;;;;;3.60;2.78;;;28.50;50.20;;;;;;5053587;28;20181;-68
2022/07/20 05:32:57;;;;;;;4.32;3.13;;;28.70;49.60;;;;;;5053703;28;20177;-68
2022/07/20 05:35:23;;;;;;;5.85;2.90;;;29.00;49.30;;;;;;5053496;28;20625;-67
2022/07/20 05:37:48;;;;;;;4.18;2.85;;;29.30;48.90;;;;;;5053447;28;20264;-68
2022/07/20 05:40:14;;;;;;;8.02;3.30;;;29.70;48.50;;;;;;5053479;28;20177;-68
2022/07/20 05:42:39;;;;;;;6.05;3.80;;;30.20;48.00;;;;;;5053440;28;20204;-68
2022/07/20 05:45:05;;;;;;;12.38;4.05;;;30.60;47.30;;;;;;5053272;28;20192;-68
2022/07/20 05:47:31;;;;;;;8.52;3.20;;;31.10;46.80;;;;;;5053211;28;20224;-68
2022/07/20 05:49:58;;;;;;;3.92;2.78;;;31.60;46.00;;;;;;5053234;28;20174;-68
2022/07/20 05:52:23;;;;;;;4.85;2.70;;;32.00;45.40;;;;;;5052967;28;20193;-68
2022/07/20 05:54:49;;;;;;;4.05;3.00;;;32.50;44.50;;;;;;5053299;28;20231;-68
2022/07/20 05:57:14;;;;;;;5.85;2.85;;;32.80;44.30;;;;;;5053142;28;20218;-67
2022/07/20 05:59:40;;;;;;;3.25;2.92;;;33.20;43.50;;;;;;5053129;28;20177;-68
2022/07/20 06:02:07;;;;;;;6.30;4.50;;;33.60;43.20;;;;;;5053069;28;20212;-68
2022/07/20 06:04:32;;;;;;;9.27;5.65;;;34.10;42.40;;;;;;5053034;28;20207;-68
2022/07/20 06:06:58;;;;;;;7.00;3.80;;;34.60;41.80;;;;;;5053021;28;20240;-68
2022/07/20 06:09:23;;;;;;;5.20;3.40;;;35.00;41.30;;;;;;5052812;28;20664;-68
2022/07/20 06:11:49;;;;;;;12.00;6.72;;;35.50;40.60;;;;;;5052918;28;20173;-69
2022/07/20 06:14:14;;;;;;;10.00;5.68;;;36.00;40.20;;;;;;5052783;28;20529;-68
2022/07/20 06:16:40;;;;;;;11.15;5.13;;;36.50;39.50;;;;;;5052968;28;20191;-69
2022/07/20 06:19:05;;;;;;;16.17;9.35;;;36.90;38.70;;;;;;5052812;28;20203;-68
2022/07/20 06:21:31;;;;;;;19.70;8.88;;;37.40;38.20;;;;;;5052712;28;20305;-68
2022/07/20 06:23:56;;;;;;;14.63;7.47;;;37.70;37.80;;;;;;5052683;28;20579;-69
2022/07/20 06:26:22;;;;;;;7.75;3.45;;;38.00;38.00;;;;;;5052421;28;20206;-69
2022/07/20 06:28:48;;;;;;;3.50;3.03;;;38.30;37.80;;;;;;5052621;28;20636;-68
2022/07/20 06:31:14;;;;;;;6.10;3.00;;;38.60;37.30;;;;;;5052487;28;20230;-69
2022/07/20 06:33:39;;;;;;;9.65;3.35;;;39.10;36.80;;;;;;5051243;28;20627;-69
2022/07/20 06:36:05;;;;;;;5.63;2.80;;;39.50;36.20;;;;;;5052373;28;20172;-69
2022/07/20 06:38:30;;;;;;;6.20;2.90;;;39.80;36.10;;;;;;5051738;28;20180;-69
2022/07/20 06:40:56;;;;;;;5.10;3.03;;;39.90;35.50;;;;;;5052732;28;20183;-69
2022/07/20 06:43:23;;;;;;;6.38;4.70;;;40.10;35.40;;;;;;5053254;28;20179;-69
2022/07/20 06:45:49;;;;;;;3.90;2.85;;;40.30;35.30;;;;;;5052720;28;20203;-69
2022/07/20 06:48:15;;;;;;;4.88;2.75;;;40.80;35.00;;;;;;5052308;28;20220;-68
2022/07/20 06:50:41;;;;;;;3.97;2.90;;;40.90;34.20;;;;;;5052159;28;20203;-69
2022/07/20 06:53:07;;;;;;;3.10;2.80;;;40.50;34.10;;;;;;5052037;28;20187;-70
2022/07/20 06:55:32;;;;;;;7.57;3.00;;;40.30;34.70;;;;;;5052263;28;20173;-69
2022/07/20 06:57:58;;;;;;;5.95;2.70;;;40.20;34.90;;;;;;5052129;28;20180;-69
2022/07/20 07:00:23;;;;;;;3.75;2.85;;;40.30;34.80;;;;;;5051921;28;20195;-69
2022/07/20 07:02:49;;;;;;;6.80;3.08;;;40.70;35.30;;;;;;5052051;28;20529;-69
2022/07/20 07:05:14;;;;;;;3.15;2.88;;;40.90;34.40;;;;;;5051516;28;20303;-70
2022/07/20 07:07:40;;;;;;;3.70;2.80;;;41.10;34.20;;;;;;5051747;28;20270;-69
2022/07/20 07:10:06;;;;;;;2.95;2.75;;;41.30;34.10;;;;;;5052059;28;20580;-69
2022/07/20 07:12:32;;;;;;;6.45;3.28;;;41.60;33.90;;;;;;5051832;28;20219;-69
2022/07/20 07:14:57;;;;;;;5.75;3.03;;;42.00;33.50;;;;;;5052001;28;20184;-68
2022/07/20 07:17:23;;;;;;;5.18;3.13;;;42.30;33.40;;;;;;5051676;28;20267;-68
2022/07/20 07:19:49;;;;;;;3.80;3.10;;;42.60;33.30;;;;;;5051985;28;20572;-68
2022/07/20 07:22:14;;;;;;;4.13;2.92;;;42.80;33.10;;;;;;5051491;28;20251;-68
2022/07/20 07:24:40;;;;;;;3.38;3.08;;;43.00;33.20;;;;;;5051797;28;20169;-69
2022/07/20 07:27:06;;;;;;;5.60;3.00;;;43.00;33.10;;;;;;5051502;28;20274;-68
2022/07/20 07:29:32;;;;;;;4.85;2.90;;;43.10;32.80;;;;;;5051809;28;20183;-69
2022/07/20 07:32:00;;;;;;;7.05;3.00;;;43.10;32.60;;;;;;5051692;28;20181;-69
2022/07/20 07:34:26;;;;;;;6.50;3.08;;;42.90;33.10;;;;;;5051607;28;20173;-68
2022/07/20 07:36:52;;;;;;;5.55;3.38;;;43.10;33.00;;;;;;5051641;28;20177;-69
2022/07/20 07:39:18;;;;;;;4.95;3.60;;;43.40;32.90;;;;;;5051534;28;20181;-68
2022/07/20 07:41:44;;;;;;;4.80;3.47;;;43.60;32.60;;;;;;5051564;28;20322;-68
2022/07/20 07:44:09;;;;;;;4.07;3.55;;;43.60;32.70;;;;;;5051486;28;20169;-68
2022/07/20 07:46:35;;;;;;;6.05;3.50;;;43.60;32.80;;;;;;5051745;28;20189;-68
2022/07/20 07:49:01;;;;;;;7.13;3.40;;;43.80;32.00;;;;;;5051845;28;20188;-68
2022/07/20 07:51:27;;;;;;;5.30;3.88;;;43.90;31.80;;;;;;5055429;28;20175;-68
2022/07/20 07:53:52;;;;;;;8.68;3.60;;;44.10;32.40;;;;;;5055595;28;20208;-68
2022/07/20 07:56:18;;;;;;;4.00;3.50;;;44.10;31.30;;;;;;5055385;28;20631;-68
2022/07/20 07:58:43;;;;;;;5.55;3.72;;;44.00;31.70;;;;;;5055518;28;20172;-68
2022/07/20 08:01:09;;;;;;;5.07;4.00;;;44.00;32.10;;;;;;5055306;28;20173;-68
2022/07/20 08:03:34;;;;;;;6.32;3.70;;;43.90;31.30;;;;;;5055304;28;20263;-68
2022/07/20 08:06:00;;;;;;;3.55;3.22;;;43.70;31.00;;;;;;5055246;28;20652;-68
2022/07/20 08:08:26;;;;;;;5.40;3.95;;;43.50;32.20;;;;;;5055075;28;20671;-68
2022/07/20 08:10:52;;;;;;;3.83;3.45;;;43.50;31.90;;;;;;5055237;28;20181;-68
2022/07/20 08:13:17;;;;;;;4.18;3.75;;;43.50;31.10;;;;;;5055174;28;20180;-68
2022/07/20 08:15:43;;;;;;;7.75;5.10;;;43.40;32.00;;;;;;5055191;28;20180;-69
2022/07/20 08:18:08;;;;;;;6.68;3.97;;;43.50;32.10;;;;;;5055116;28;20177;-68
2022/07/20 08:20:34;;;;;;;4.80;3.22;;;43.60;31.70;;;;;;5054904;28;20227;-68
2022/07/20 08:23:00;;;;;;;4.55;3.10;;;43.50;31.40;;;;;;5055128;28;20188;-69
2022/07/20 08:25:25;;;;;;;6.65;3.42;;;43.60;31.40;;;;;;5054886;28;20173;-69
2022/07/20 08:27:51;;;;;;;6.30;3.20;;;43.60;31.40;;;;;;5054909;28;20702;-68
2022/07/20 08:30:17;;;;;;;5.13;3.78;;;43.50;31.10;;;;;;5054911;28;20615;-68
2022/07/20 08:32:43;;;;;;;6.93;3.80;;;43.50;31.50;;;;;;5054730;28;20250;-68
2022/07/20 08:35:10;;;;;;;6.13;3.33;;;43.30;31.70;;;;;;5054733;28;20207;-68
2022/07/20 08:37:37;;;;;;;4.82;3.58;;;43.30;30.90;;;;;;5054659;28;20272;-68
2022/07/20 08:40:03;;;;;;;3.53;3.22;;;43.10;32.10;;;;;;5054600;28;20181;-68
2022/07/20 08:42:29;;;;;;;5.00;3.30;;;43.00;31.60;;;;;;5054540;28;20188;-68
2022/07/20 08:44:54;;;;;;;7.35;3.55;;;42.90;31.70;;;;;;5053550;28;20177;-68
2022/07/20 08:47:24;;;;;;;5.57;3.50;;;42.90;31.90;;;;;;5054479;28;20262;-68
2022/07/20 08:49:50;;;;;;;4.57;3.05;;;42.70;32.10;;;;;;5054438;28;20628;-69
2022/07/20 08:52:17;;;;;;;7.13;3.33;;;42.40;32.30;;;;;;5054442;28;20271;-68
2022/07/20 08:54:42;;;;;;;5.57;3.80;;;42.10;33.10;;;;;;5054340;28;20177;-68
2022/07/20 08:57:14;;;;;;;3.80;3.47;;;42.10;32.80;;;;;;5053052;28;20701;-68
2022/07/20 08:59:40;;;;;;;6.53;3.38;;;41.90;32.80;;;;;;5054294;28;20188;-68
2022/07/20 09:02:08;;;;;;;5.15;3.53;;;41.70;33.50;;;;;;5053582;28;20547;-68
2022/07/20 09:04:48;;;;;;;4.82;3.75;;;41.50;34.30;;;;;;5054265;28;20176;-68
2022/07/20 09:07:14;;;;;;;8.52;3.55;;;40.90;33.70;;;;;;5054124;28;20200;-68
2022/07/20 09:09:39;;;;;;;5.57;3.35;;;40.60;34.30;;;;;;5054196;28;20188;-69
2022/07/20 09:12:05;;;;;;;6.13;3.80;;;40.50;35.30;;;;;;5054012;28;20173;-69
2022/07/20 09:14:41;;;;;;;5.88;4.18;;;40.20;35.50;;;;;;5053972;28;20176;-68
2022/07/20 09:17:17;;;;;;;6.90;4.03;;;39.80;36.00;;;;;;5054009;28;20173;-68
2022/07/20 09:19:58;;;;;;;9.02;3.90;;;39.90;36.10;;;;;;5053949;28;20238;-68
2022/07/20 09:22:35;;;;;;;7.20;4.20;;;39.80;35.70;;;;;;5053606;28;20216;-69
2022/07/20 09:25:13;;;;;;;5.65;4.10;;;40.00;36.00;;;;;;5053768;28;20199;-69
2022/07/20 09:27:39;;;;;;;9.23;4.10;;;40.20;35.40;;;;;;5053881;28;20216;-68
2022/07/20 09:30:12;;;;;;;5.75;4.35;;;40.20;35.60;;;;;;5053474;28;20181;-68
2022/07/20 09:32:51;;;;;;;5.55;4.47;;;39.70;35.60;;;;;;5053838;28;20184;-68
2022/07/20 09:35:18;;;;;;;5.78;4.80;;;39.10;36.10;;;;;;5053694;28;20165;-68
2022/07/20 09:37:44;;;;;;;5.93;4.35;;;38.40;37.10;;;;;;5053579;28;20177;-68
2022/07/20 09:40:10;;;;;;;5.07;4.35;;;38.00;38.20;;;;;;5053539;28;20640;-68
2022/07/20 09:42:41;;;;;;;6.47;4.30;;;38.10;38.90;;;;;;5053469;28;20644;-68
2022/07/20 09:45:26;;;;;;;10.50;4.85;;;38.40;38.20;;;;;;5053352;28;20180;-68
2022/07/20 09:48:09;;;;;;;7.10;4.57;;;38.70;38.50;;;;;;5053440;28;20217;-67
2022/07/20 09:50:40;;;;;;;5.45;4.60;;;38.80;37.40;;;;;;5053367;28;20164;-67
2022/07/20 09:53:07;;;;;;;6.03;4.45;;;39.00;38.90;;;;;;5053249;28;20279;-67
2022/07/20 09:55:34;;;;;;;6.35;4.93;;;39.30;38.00;;;;;;5053311;28;20180;-67
2022/07/20 09:58:00;;;;;;;5.32;4.80;;;39.60;37.40;;;;;;5053167;28;20674;-67
2022/07/20 10:00:27;;;;;;;7.35;5.10;;;39.70;37.10;;;;;;5053168;28;20255;-67
2022/07/20 10:02:53;;;;;;;8.55;6.25;;;39.60;37.70;;;;;;5053349;28;20177;-68
2022/07/20 10:05:21;;;;;;;12.25;6.53;;;39.10;38.70;;;;;;5052932;28;20663;-67
2022/07/20 10:07:47;;;;;;;8.13;6.07;;;38.90;39.00;;;;;;5053061;28;20246;-68
2022/07/20 10:10:13;;;;;;;11.55;6.53;;;38.70;39.90;;;;;;5052942;28;20252;-67
2022/07/20 10:12:39;;;;;;;10.35;7.03;;;38.40;40.50;;;;;;5052198;28;20177;-67
2022/07/20 10:15:13;;;;;;;8.23;7.05;;;38.30;40.00;;;;;;5052608;28;20721;-67
2022/07/20 10:17:41;;;;;;;10.80;7.72;;;38.00;40.80;;;;;;5052951;28;20593;-67
2022/07/20 10:20:27;;;;;;;8.07;7.00;;;37.90;41.80;;;;;;5052695;28;20176;-67
2022/07/20 10:23:14;;;;;;;8.40;6.97;;;38.00;40.90;;;;;;5051488;28;20232;-67
2022/07/20 10:25:44;;;;;;;8.40;7.50;;;38.00;41.50;;;;;;5052727;28;20616;-67
2022/07/20 10:28:25;;;;;;;11.57;7.70;;;38.20;41.90;;;;;;5052495;28;20220;-67
2022/07/20 10:30:52;;;;;;;10.60;7.80;;;38.50;40.90;;;;;;5052727;28;20560;-67
2022/07/20 10:33:18;;;;;;;11.30;7.68;;;38.90;40.70;;;;;;5052564;28;20184;-67
2022/07/20 10:35:47;;;;;;;9.93;7.38;;;39.20;40.50;;;;;;5052520;28;20180;-67
2022/07/20 10:38:18;;;;;;;11.90;8.52;;;39.30;40.10;;;;;;5052339;28;20275;-67
2022/07/20 10:44:20;;;;;;;11.73;8.18;;;39.00;40.40;;;;;;5052592;28;20215;-67
2022/07/20 10:46:48;;;;;;;10.95;9.00;;;38.70;41.30;;;;;;5051246;28;20208;-68
2022/07/20 10:49:14;;;;;;;10.60;8.40;;;38.60;41.70;;;;;;5051125;28;20177;-68
2022/07/20 10:51:40;;;;;;;11.80;8.40;;;38.50;42.90;;;;;;5052280;28;20187;-67
2022/07/20 10:54:30;;;;;;;11.68;8.55;;;38.60;42.20;;;;;;5052183;28;20204;-67
2022/07/20 10:56:57;;;;;;;11.23;9.20;;;38.60;41.50;;;;;;5052207;28;20201;-67
2022/07/20 10:59:22;;;;;;;9.50;8.60;;;38.80;41.50;;;;;;5051857;28;20268;-67
2022/07/20 11:01:48;;;;;;;10.90;9.00;;;39.10;41.70;;;;;;5052048;28;20260;-67
2022/07/20 11:04:15;;;;;;;10.80;9.43;;;39.40;40.90;;;;;;5051990;28;20184;-67
2022/07/20 11:06:41;;;;;;;13.10;9.23;;;39.50;40.80;;;;;;5051906;28;20315;-67
2022/07/20 11:09:06;;;;;;;14.30;9.25;;;39.50;41.00;;;;;;5051965;28;20732;-67
2022/07/20 11:11:34;;;;;;;14.45;9.65;;;39.50;40.70;;;;;;5052006;28;20528;-67
2022/07/20 11:14:02;;;;;;;14.18;9.32;;;39.60;40.80;;;;;;5051825;28;20211;-67
2022/07/20 11:16:29;;;;;;;14.65;9.15;;;39.70;41.20;;;;;;5051859;28;20180;-67
2022/07/20 11:18:56;;;;;;;10.30;9.20;;;39.80;40.90;;;;;;5051993;28;20177;-67
2022/07/20 11:21:38;;;;;;;14.15;9.57;;;39.80;40.50;;;;;;5051438;28;20312;-67
2022/07/20 11:24:06;;;;;;;10.15;8.80;;;39.90;40.70;;;;;;5051457;28;20628;-67
2022/07/20 11:26:31;;;;;;;15.98;9.55;;;40.10;40.20;;;;;;5051786;28;20173;-67
2022/07/20 11:28:58;;;;;;;10.82;9.07;;;40.10;40.00;;;;;;5051733;28;20180;-66
2022/07/20 11:31:26;;;;;;;12.38;9.48;;;40.00;39.60;;;;;;5051530;28;20177;-67
2022/07/20 11:33:53;;;;;;;12.43;9.00;;;39.80;40.10;;;;;;5051667;28;20181;-67
2022/07/20 11:36:20;;;;;;;12.07;9.23;;;39.70;40.60;;;;;;5051661;28;20169;-67
2022/07/20 11:38:56;;;;;;;12.77;8.65;;;39.70;40.50;;;;;;5051651;28;20169;-67
2022/07/20 11:41:31;;;;;;;11.73;8.82;;;39.80;40.60;;;;;;5051505;28;20615;-67
2022/07/20 11:43:59;;;;;;;14.70;8.85;;;39.50;39.60;;;;;;5051800;28;20540;-67
2022/07/20 11:46:27;;;;;;;13.63;8.77;;;39.20;40.80;;;;;;5051342;28;20177;-67
2022/07/20 11:49:00;;;;;;;10.93;8.27;;;39.20;40.90;;;;;;5051517;28;20195;-66
2022/07/20 11:51:27;;;;;;;11.10;8.48;;;39.20;40.90;;;;;;5051409;28;20184;-66
2022/07/20 11:53:53;;;;;;;8.90;8.10;;;39.50;41.30;;;;;;5051570;28;20179;-67
2022/07/20 11:56:20;;;;;;;12.23;8.73;;;39.50;40.80;;;;;;5051578;28;20538;-66
2022/07/20 11:58:50;;;;;;;14.07;8.85;;;39.50;41.30;;;;;;5051377;28;20246;-66
2022/07/20 12:01:26;;;;;;;17.95;8.30;;;39.70;41.00;;;;;;5051350;28;20628;-67
2022/07/20 12:04:03;;;;;;;9.63;7.70;;;39.70;40.00;;;;;;5051529;28;20169;-67
2022/07/20 12:06:31;;;;;;;12.15;7.80;;;39.90;39.20;;;;;;5051406;28;20195;-66
2022/07/20 12:09:13;;;;;;;10.32;8.35;;;39.70;39.20;;;;;;5051316;28;20636;-66
2022/07/20 12:12:06;;;;;;;10.85;8.05;;;39.60;39.90;;;;;;5051376;28;20173;-66
2022/07/20 12:14:37;;;;;;;17.30;8.43;;;39.40;40.30;;;;;;5051225;28;20181;-67
2022/07/20 12:17:25;;;;;;;11.82;8.60;;;39.30;40.50;;;;;;5051189;28;20184;-66
2022/07/20 12:19:52;;;;;;;12.50;8.38;;;39.30;40.60;;;;;;5051328;28;20180;-66
2022/07/20 12:22:21;;;;;;;13.93;8.75;;;39.50;40.90;;;;;;5051014;28;20231;-66
2022/07/20 12:25:01;;;;;;;12.38;9.40;;;39.30;41.40;;;;;;5051079;28;20641;-66
2022/07/20 12:27:32;;;;;;;12.25;8.95;;;39.10;41.60;;;;;;5051084;28;20212;-66
2022/07/20 12:29:59;;;;;;;12.32;8.70;;;38.80;42.00;;;;;;5051270;28;20192;-66
2022/07/20 12:32:33;;;;;;;14.45;8.88;;;38.70;42.90;;;;;;5051064;28;20189;-67
2022/07/20 12:35:00;;;;;;;11.48;8.68;;;38.50;42.20;;;;;;5051201;28;20175;-67
2022/07/20 12:37:50;;;;;;;12.77;8.43;;;38.00;42.90;;;;;;5053500;28;20254;-67
2022/07/20 12:40:39;;;;;;;10.13;8.55;;;37.50;43.30;;;;;;5054663;28;20636;-67
2022/07/20 12:43:24;;;;;;;14.35;8.50;;;37.00;43.10;;;;;;5054648;28;20184;-67
2022/07/20 12:45:50;;;;;;;13.65;8.40;;;36.60;43.70;;;;;;5054719;28;20222;-67
2022/07/20 12:48:15;;;;;;;9.88;7.97;;;36.20;44.60;;;;;;5053355;28;20221;-67
2022/07/20 12:50:41;;;;;;;10.57;8.60;;;35.90;45.00;;;;;;5054412;28;20165;-67